Terminal Aerodrome Forecast
Issued by NWS

Home | Current Version | Previous Version | Text Only | Print | Product List | Glossary On
Versions: 1 2 3 4 5 6 7 8 9 10 11 12 13 14 15 16 17 18 19 20 21 22 23 24 25 26 27 28
000
FTUS42 KCAE 190230 AAA
TAFOGB
TAF AMD
KOGB 190230Z 1903/1924 20005KT P6SM VCSH SCT050 BKN070
     FM190500 23003KT P6SM SCT070
      TEMPO 1909/1912 4SM BR
     FM191500 26005KT P6SM SCT050=

USA.gov is the U.S. government's official web portal to all federal, state and local government web resources and services.